Atlas, Michigan
Current Conditions -  °F | °C
As of 9:53 PM on Friday 21 Nov 2014 (Local Time) from KFNT Reporting Station
Clear Clear  
Wind Chill: -11°   Ceiling: Unl
Heat Index: -6°   Visibility: 10mi
Dew Point: -11°   Wind: 9mph
Humidity: 66%   Direction: 190°S
Pressure: 30.32"   Gusts: NA
Location:  42.94°N, 83.53°W
Report Text: KFNT 220253Z 19008KT 10SM CLR M06/M11 A3032 RMK AO2 SLP283 T10561111 58016
Loading
Personal Weather Stations






























Interactive Weather Map New forecast layout! Learn more

10-Day Weather Forecast

Advertisements
Track Severe Weather on mobile